La Reine, Canada
Current Conditions -  °F | °C
As of 3:00 PM on Sunday 23 Nov 2014 (Local Time) from CYUY Reporting Station
Haze Haze  
Wind Chill: 33°   Ceiling: 400
Heat Index: 37°   Visibility: 4mi
Dew Point: 36°   Wind: 6mph
Humidity: 93%   Direction: 170°S
Pressure: 29.76"   Gusts: NA
Location:  48.87°N, 79.5°W
Report Text: CYUY 232000Z 17005KT 4SM BR OVC004 03/02 A2976 RMK SF8 SLP090
Loading
Personal Weather Stations






























Interactive Weather Map New forecast layout! Learn more

10-Day Weather Forecast

Advertisements
Track Severe Weather on mobile